Time;durP1;ratioP1;P1;durP2;ratioP2;P2;SDS_P1;SDS_P2;PMS_P1;PMS_P2;Temp;Humidity;BMP_temperature;BMP_pressure;BME280_temperature;BME280_humidity;BME280_pressure;Samples;Min_cycle;Max_cycle;Signal;HPM_P1;HPM_P2
2022/09/19 00:01:23;;;;;;;2.13;1.50;;;;;;;;;;5074327;28;20455;-73
2022/09/19 00:03:53;;;;;;;1.87;1.37;;;;;;;;;;5074120;28;20819;-73
2022/09/19 00:06:21;;;;;;;3.20;1.50;;;;;;;;;;5074330;28;20458;-73
2022/09/19 00:08:48;;;;;;;5.00;2.23;;;;;;;;;;5074320;28;20451;-73
2022/09/19 00:11:17;;;;;;;2.27;1.67;;;;;;;;;;5074205;28;20467;-73
2022/09/19 00:13:45;;;;;;;3.70;2.07;;;;;;;;;;5073955;28;20480;-75
2022/09/19 00:16:12;;;;;;;2.63;1.53;;;;;;;;;;5074177;28;20467;-74
2022/09/19 00:18:41;;;;;;;4.40;1.70;;;;;;;;;;5074070;28;20463;-74
2022/09/19 00:21:08;;;;;;;7.20;1.70;;;;;;;;;;5074159;28;20455;-74
2022/09/19 00:26:20;;;;;;;4.50;2.30;;;;;;;;;;5073950;28;20443;-74
2022/09/19 00:28:47;;;;;;;2.70;2.10;;;;;;;;;;5074019;28;20456;-74
2022/09/19 00:31:17;;;;;;;2.10;1.87;;;;;;;;;;5073853;28;20455;-74
2022/09/19 00:33:46;;;;;;;2.03;1.83;;;;;;;;;;5073956;28;20456;-73
2022/09/19 00:36:13;;;;;;;3.33;2.20;;;;;;;;;;5073824;28;20444;-73
2022/09/19 00:38:41;;;;;;;2.50;2.30;;;;;;;;;;5073695;28;20833;-72
2022/09/19 00:41:08;;;;;;;3.13;1.87;;;;;;;;;;5073047;28;20827;-73
2022/09/19 00:43:45;;;;;;;1.87;1.67;;;;;;;;;;5073372;28;20443;-73
2022/09/19 00:46:12;;;;;;;2.67;1.50;;;;;;;;;;5073548;28;20953;-72
2022/09/19 00:48:41;;;;;;;3.07;1.90;;;;;;;;;;5073495;28;20466;-73
2022/09/19 00:51:10;;;;;;;2.30;1.90;;;;;;;;;;5073665;28;20821;-73
2022/09/19 00:53:37;;;;;;;3.70;1.83;;;;;;;;;;5073196;28;20451;-73
2022/09/19 00:56:05;;;;;;;2.17;1.37;;;;;;;;;;5073275;28;20448;-73
2022/09/19 00:58:34;;;;;;;2.67;1.90;;;;;;;;;;5073339;28;20459;-73
2022/09/19 01:01:01;;;;;;;5.50;1.67;;;;;;;;;;5073539;28;20451;-72
2022/09/19 01:03:29;;;;;;;2.83;1.73;;;;;;;;;;5073072;28;20827;-73
2022/09/19 01:06:01;;;;;;;5.70;2.37;;;;;;;;;;5073156;28;20518;-72
2022/09/19 01:08:37;;;;;;;3.97;1.90;;;;;;;;;;5073288;28;20452;-72
2022/09/19 01:11:12;;;;;;;3.10;2.13;;;;;;;;;;5073007;28;20482;-72
2022/09/19 01:13:44;;;;;;;1.80;1.43;;;;;;;;;;5072908;28;20972;-72
2022/09/19 01:16:20;;;;;;;1.90;1.40;;;;;;;;;;5073118;28;20459;-72
2022/09/19 01:18:49;;;;;;;3.53;1.60;;;;;;;;;;5073133;28;20459;-72
2022/09/19 01:21:40;;;;;;;2.37;1.90;;;;;;;;;;5073072;28;20549;-72
2022/09/19 01:24:22;;;;;;;3.53;1.70;;;;;;;;;;5072361;28;20871;-72
2022/09/19 01:27:01;;;;;;;2.43;1.57;;;;;;;;;;5072866;28;20443;-72
2022/09/19 01:29:31;;;;;;;4.80;1.53;;;;;;;;;;5073012;28;20455;-72
2022/09/19 01:31:59;;;;;;;1.30;1.00;;;;;;;;;;5073424;28;20451;-72
2022/09/19 01:34:28;;;;;;;1.80;1.00;;;;;;;;;;5072642;28;20504;-72
2022/09/19 01:37:03;;;;;;;1.50;1.00;;;;;;;;;;5073085;28;20459;-72
2022/09/19 01:39:31;;;;;;;1.70;1.10;;;;;;;;;;5072849;28;20451;-72
2022/09/19 01:41:59;;;;;;;1.50;1.03;;;;;;;;;;5072872;28;20455;-72
2022/09/19 01:44:27;;;;;;;1.20;0.90;;;;;;;;;;5072616;28;20471;-72
2022/09/19 01:47:00;;;;;;;1.67;1.17;;;;;;;;;;5072781;28;20458;-72
2022/09/19 01:49:32;;;;;;;1.50;1.10;;;;;;;;;;5072845;28;20455;-72
2022/09/19 01:52:04;;;;;;;1.77;1.00;;;;;;;;;;5074174;28;20509;-72
2022/09/19 01:54:36;;;;;;;3.37;1.30;;;;;;;;;;5076524;28;21010;-72
2022/09/19 01:57:09;;;;;;;2.10;1.10;;;;;;;;;;5076856;28;20459;-72
2022/09/19 01:59:46;;;;;;;1.50;1.00;;;;;;;;;;5076811;28;20439;-72
2022/09/19 02:02:22;;;;;;;2.00;0.90;;;;;;;;;;5076925;28;20447;-72
2022/09/19 02:04:52;;;;;;;2.17;1.40;;;;;;;;;;5076384;28;20494;-72
2022/09/19 02:07:23;;;;;;;1.60;1.20;;;;;;;;;;5076726;28;20451;-72
2022/09/19 02:09:54;;;;;;;1.50;0.90;;;;;;;;;;5076824;28;20452;-72
2022/09/19 02:12:22;;;;;;;2.30;0.90;;;;;;;;;;5076489;28;20451;-72
2022/09/19 02:14:54;;;;;;;1.30;0.90;;;;;;;;;;5076120;28;20987;-73
2022/09/19 02:17:26;;;;;;;2.07;1.00;;;;;;;;;;5076374;28;20456;-73
2022/09/19 02:19:54;;;;;;;2.80;1.03;;;;;;;;;;5076399;28;20804;-73
2022/09/19 02:22:23;;;;;;;2.17;0.83;;;;;;;;;;5076355;28;20456;-73
2022/09/19 02:24:56;;;;;;;2.10;1.03;;;;;;;;;;5076078;28;20832;-73
2022/09/19 02:27:27;;;;;;;2.20;0.97;;;;;;;;;;5075995;28;20476;-73
2022/09/19 02:29:57;;;;;;;1.30;0.80;;;;;;;;;;5076546;28;20826;-73
2022/09/19 02:32:26;;;;;;;1.60;0.90;;;;;;;;;;5076265;28;20443;-73
2022/09/19 02:34:54;;;;;;;1.90;1.00;;;;;;;;;;5075875;28;20510;-73
2022/09/19 02:37:24;;;;;;;1.30;0.80;;;;;;;;;;5076055;28;20959;-73
2022/09/19 02:39:55;;;;;;;4.13;1.17;;;;;;;;;;5076002;28;20945;-73
2022/09/19 02:42:24;;;;;;;3.10;2.33;;;;;;;;;;5075980;28;20478;-73
2022/09/19 02:45:02;;;;;;;1.63;1.20;;;;;;;;;;5075630;28;20534;-73
2022/09/19 02:47:35;;;;;;;1.50;1.00;;;;;;;;;;5076021;28;20882;-73
2022/09/19 02:50:07;;;;;;;1.53;1.10;;;;;;;;;;5075853;28;20456;-73
2022/09/19 02:52:35;;;;;;;1.30;0.97;;;;;;;;;;5075870;28;20960;-73
2022/09/19 02:55:03;;;;;;;1.40;0.97;;;;;;;;;;5075561;28;20820;-73
2022/09/19 02:57:31;;;;;;;1.70;1.30;;;;;;;;;;5075656;28;20451;-73
2022/09/19 02:59:59;;;;;;;1.40;1.03;;;;;;;;;;5075526;28;20463;-73
2022/09/19 03:02:28;;;;;;;1.40;0.97;;;;;;;;;;5074904;28;20448;-73
2022/09/19 03:04:59;;;;;;;3.93;1.63;;;;;;;;;;5075196;28;20499;-73
2022/09/19 03:07:28;;;;;;;2.00;1.50;;;;;;;;;;5075430;28;20471;-73
2022/09/19 03:10:00;;;;;;;1.37;0.90;;;;;;;;;;5075427;28;20463;-73
2022/09/19 03:12:30;;;;;;;1.40;1.00;;;;;;;;;;5075190;28;20456;-73
2022/09/19 03:14:58;;;;;;;1.90;1.20;;;;;;;;;;5075165;28;20472;-73
2022/09/19 03:17:28;;;;;;;1.30;1.10;;;;;;;;;;5075155;28;20451;-73
2022/09/19 03:19:55;;;;;;;2.93;1.30;;;;;;;;;;5075303;28;20554;-73
2022/09/19 03:22:25;;;;;;;2.27;1.30;;;;;;;;;;5074885;28;20837;-73
2022/09/19 03:24:52;;;;;;;3.00;1.83;;;;;;;;;;5074893;28;20483;-73
2022/09/19 03:27:19;;;;;;;2.77;1.00;;;;;;;;;;5075409;28;20477;-73
2022/09/19 03:29:47;;;;;;;1.83;1.40;;;;;;;;;;5075071;28;20458;-73
2022/09/19 03:32:14;;;;;;;2.43;1.23;;;;;;;;;;5075118;28;20936;-73
2022/09/19 03:34:41;;;;;;;1.40;1.00;;;;;;;;;;5074584;28;20471;-73
2022/09/19 03:37:08;;;;;;;1.90;1.30;;;;;;;;;;5075179;28;20937;-73
2022/09/19 03:39:37;;;;;;;2.97;1.10;;;;;;;;;;5074930;28;20464;-73
2022/09/19 03:42:04;;;;;;;1.57;1.00;;;;;;;;;;5074733;28;20456;-74
2022/09/19 03:44:31;;;;;;;1.67;0.90;;;;;;;;;;5074502;28;20494;-74
2022/09/19 03:46:58;;;;;;;1.87;1.10;;;;;;;;;;5074730;28;20495;-73
2022/09/19 03:49:25;;;;;;;1.90;1.37;;;;;;;;;;5074682;28;20509;-73
2022/09/19 03:51:53;;;;;;;6.10;3.80;;;;;;;;;;5074693;28;20956;-73
2022/09/19 03:54:20;;;;;;;1.53;1.00;;;;;;;;;;5074295;28;20479;-73
2022/09/19 03:56:48;;;;;;;1.90;1.10;;;;;;;;;;5074493;28;20810;-73
2022/09/19 03:59:16;;;;;;;1.50;0.93;;;;;;;;;;5074627;28;20467;-72
2022/09/19 04:01:43;;;;;;;3.50;1.23;;;;;;;;;;5074818;28;20502;-72
2022/09/19 04:04:10;;;;;;;1.60;1.10;;;;;;;;;;5074415;28;20525;-72
2022/09/19 04:06:38;;;;;;;1.30;1.00;;;;;;;;;;5074130;28;20540;-72
2022/09/19 04:09:05;;;;;;;1.70;1.30;;;;;;;;;;5074355;28;20839;-73
2022/09/19 04:11:32;;;;;;;2.30;1.10;;;;;;;;;;5074615;28;20444;-73
2022/09/19 04:14:00;;;;;;;2.50;1.07;;;;;;;;;;5073562;28;20463;-73
2022/09/19 04:16:27;;;;;;;1.37;0.90;;;;;;;;;;5073811;28;20536;-72
2022/09/19 04:18:55;;;;;;;1.40;0.90;;;;;;;;;;5074072;28;20463;-72
2022/09/19 04:21:22;;;;;;;2.23;1.40;;;;;;;;;;5074091;28;20447;-72
2022/09/19 04:23:49;;;;;;;1.43;1.10;;;;;;;;;;5073400;28;20443;-72
2022/09/19 04:26:16;;;;;;;1.50;1.20;;;;;;;;;;5074234;28;20491;-71
2022/09/19 04:28:44;;;;;;;2.57;1.20;;;;;;;;;;5093692;28;20459;-72
2022/09/19 04:31:13;;;;;;;3.70;1.60;;;;;;;;;;5093312;28;20511;-72
2022/09/19 04:33:40;;;;;;;9.13;3.57;;;;;;;;;;5093511;28;20458;-73
2022/09/19 04:36:08;;;;;;;3.20;2.33;;;;;;;;;;5093883;28;20463;-74
2022/09/19 04:38:36;;;;;;;2.53;1.13;;;;;;;;;;5093684;28;20499;-73
2022/09/19 04:41:04;;;;;;;1.50;1.07;;;;;;;;;;5093613;28;20553;-72
2022/09/19 04:43:32;;;;;;;1.67;0.90;;;;;;;;;;5093434;28;20451;-72
2022/09/19 04:46:01;;;;;;;1.90;1.13;;;;;;;;;;5093500;28;20486;-72
2022/09/19 04:48:30;;;;;;;5.47;1.20;;;;;;;;;;5093456;28;20455;-72
2022/09/19 04:50:57;;;;;;;1.90;1.03;;;;;;;;;;5093629;28;20450;-72
2022/09/19 04:53:27;;;;;;;1.70;1.07;;;;;;;;;;5093352;28;20455;-72
2022/09/19 04:55:55;;;;;;;1.63;1.10;;;;;;;;;;5093440;28;20467;-72
2022/09/19 04:58:23;;;;;;;1.63;1.27;;;;;;;;;;5093291;28;20454;-72
2022/09/19 05:00:54;;;;;;;1.60;1.00;;;;;;;;;;5093556;28;20454;-72
2022/09/19 05:03:25;;;;;;;3.40;1.20;;;;;;;;;;5093154;28;20459;-72
2022/09/19 05:05:54;;;;;;;2.10;1.20;;;;;;;;;;5093545;28;20497;-72
2022/09/19 05:08:25;;;;;;;3.47;1.53;;;;;;;;;;5093321;28;20459;-72
2022/09/19 05:10:53;;;;;;;5.10;1.27;;;;;;;;;;5093337;28;21023;-72
2022/09/19 05:13:20;;;;;;;5.80;1.50;;;;;;;;;;5093282;28;20803;-72
2022/09/19 05:15:48;;;;;;;6.93;1.70;;;;;;;;;;5092974;28;20463;-72
2022/09/19 05:18:16;;;;;;;2.90;1.60;;;;;;;;;;5092818;28;20575;-72
2022/09/19 05:20:44;;;;;;;5.10;1.27;;;;;;;;;;5093101;28;20457;-71
2022/09/19 05:23:14;;;;;;;3.30;1.30;;;;;;;;;;5092706;28;20939;-71
2022/09/19 05:25:41;;;;;;;4.63;1.50;;;;;;;;;;5092481;28;20522;-71
2022/09/19 05:28:09;;;;;;;3.10;1.20;;;;;;;;;;5092810;28;20455;-71
2022/09/19 05:30:37;;;;;;;5.07;1.40;;;;;;;;;;5092898;28;20455;-71
2022/09/19 05:33:06;;;;;;;4.50;1.70;;;;;;;;;;5093074;28;20837;-71
2022/09/19 05:35:34;;;;;;;3.57;1.90;;;;;;;;;;5092637;28;20474;-71
2022/09/19 05:38:01;;;;;;;2.97;1.70;;;;;;;;;;5093052;28;20529;-71
2022/09/19 05:40:29;;;;;;;2.00;1.20;;;;;;;;;;5092976;28;20462;-71
2022/09/19 05:43:00;;;;;;;2.90;1.77;;;;;;;;;;5092727;28;20461;-72
2022/09/19 05:45:28;;;;;;;3.93;1.87;;;;;;;;;;5092422;28;20481;-71
2022/09/19 05:48:00;;;;;;;4.30;1.43;;;;;;;;;;5092922;28;20535;-71
2022/09/19 05:50:28;;;;;;;8.00;1.70;;;;;;;;;;5092934;28;20870;-72
2022/09/19 05:55:41;;;;;;;5.33;1.80;;;;;;;;;;5092471;28;20457;-70
2022/09/19 05:58:09;;;;;;;4.93;1.17;;;;;;;;;;5092668;28;20505;-70
2022/09/19 06:00:37;;;;;;;4.87;1.63;;;;;;;;;;5092716;28;20502;-71
2022/09/19 06:03:05;;;;;;;2.63;1.80;;;;;;;;;;5092875;28;20451;-70
2022/09/19 06:05:39;;;;;;;3.30;2.00;;;;;;;;;;5092241;28;20478;-71
2022/09/19 06:08:07;;;;;;;4.50;2.10;;;;;;;;;;5092958;28;20805;-71
2022/09/19 06:10:35;;;;;;;10.90;2.40;;;;;;;;;;5092646;28;20537;-71
2022/09/19 06:13:03;;;;;;;3.87;1.87;;;;;;;;;;5092821;28;20478;-70
2022/09/19 06:15:30;;;;;;;2.10;1.60;;;;;;;;;;5092406;28;20474;-71
2022/09/19 06:17:58;;;;;;;4.47;1.63;;;;;;;;;;5092656;28;20454;-70
2022/09/19 06:20:25;;;;;;;5.90;2.37;;;;;;;;;;5093082;28;20807;-71
2022/09/19 06:22:57;;;;;;;4.37;1.77;;;;;;;;;;5092399;28;20936;-70
2022/09/19 06:25:25;;;;;;;5.83;1.77;;;;;;;;;;5092774;28;20536;-70
2022/09/19 06:27:55;;;;;;;3.40;1.60;;;;;;;;;;5092785;28;20522;-71
2022/09/19 06:30:24;;;;;;;5.60;3.60;;;;;;;;;;5092777;28;20453;-71
2022/09/19 06:32:52;;;;;;;4.60;1.80;;;;;;;;;;5092555;28;20443;-71
2022/09/19 06:35:19;;;;;;;5.30;2.20;;;;;;;;;;5092220;28;20467;-71
2022/09/19 06:37:47;;;;;;;4.03;1.90;;;;;;;;;;5093481;28;20443;-71
2022/09/19 06:40:17;;;;;;;4.73;2.33;;;;;;;;;;5096425;28;20911;-71
2022/09/19 06:42:44;;;;;;;6.13;2.33;;;;;;;;;;5096179;28;20553;-71
2022/09/19 06:45:11;;;;;;;7.90;2.33;;;;;;;;;;5095880;28;20532;-71
2022/09/19 06:47:40;;;;;;;3.03;1.80;;;;;;;;;;5095966;28;20478;-70
2022/09/19 06:50:10;;;;;;;3.53;1.70;;;;;;;;;;5096249;28;20446;-70
2022/09/19 06:52:37;;;;;;;6.47;1.83;;;;;;;;;;5096170;28;20827;-70
2022/09/19 06:55:04;;;;;;;3.80;1.87;;;;;;;;;;5095774;28;20470;-71
2022/09/19 06:57:31;;;;;;;2.77;1.80;;;;;;;;;;5095967;28;20446;-71
2022/09/19 07:00:00;;;;;;;4.53;1.97;;;;;;;;;;5095995;28;20446;-70
2022/09/19 07:02:28;;;;;;;6.23;1.90;;;;;;;;;;5095765;28;20455;-71
2022/09/19 07:04:56;;;;;;;3.20;1.67;;;;;;;;;;5095664;28;21011;-71
2022/09/19 07:07:23;;;;;;;6.20;2.03;;;;;;;;;;5095713;28;20490;-71
2022/09/19 07:09:50;;;;;;;4.50;1.63;;;;;;;;;;5095857;28;20446;-70
2022/09/19 07:12:18;;;;;;;3.43;1.70;;;;;;;;;;5095810;28;20462;-71
2022/09/19 07:14:45;;;;;;;4.10;1.90;;;;;;;;;;5095241;28;20976;-70
2022/09/19 07:17:15;;;;;;;6.87;2.30;;;;;;;;;;5095659;28;20454;-71
2022/09/19 07:19:44;;;;;;;1.87;1.50;;;;;;;;;;5095176;28;20450;-71
2022/09/19 07:22:14;;;;;;;3.00;1.80;;;;;;;;;;5084155;28;20436;-71
2022/09/19 07:24:42;;;;;;;1.93;1.40;;;;;;;;;;5086131;28;20477;-70
2022/09/19 07:27:09;;;;;;;2.80;1.50;;;;;;;;;;5095297;28;20486;-71
2022/09/19 07:29:36;;;;;;;3.30;1.37;;;;;;;;;;5094111;28;20451;-71
2022/09/19 07:32:03;;;;;;;2.70;1.60;;;;;;;;;;5095009;28;20451;-71
2022/09/19 07:34:32;;;;;;;1.83;1.60;;;;;;;;;;5094921;28;21009;-70
2022/09/19 07:36:59;;;;;;;4.00;2.27;;;;;;;;;;5095145;28;20457;-70
2022/09/19 07:39:27;;;;;;;2.23;1.67;;;;;;;;;;5095139;28;20517;-71
2022/09/19 07:41:54;;;;;;;4.50;2.20;;;;;;;;;;5095028;28;20532;-71
2022/09/19 07:44:21;;;;;;;2.73;2.00;;;;;;;;;;5094698;28;20471;-71
2022/09/19 07:49:29;;;;;;;6.00;1.50;;;;;;;;;;5093489;28;20526;-71
2022/09/19 07:51:57;;;;;;;7.73;1.80;;;;;;;;;;5094881;28;20458;-71
2022/09/19 07:54:24;;;;;;;16.27;2.80;;;;;;;;;;5094535;28;20814;-71
2022/09/19 07:56:52;;;;;;;5.67;3.47;;;;;;;;;;5094812;28;20443;-71
2022/09/19 07:59:19;;;;;;;6.83;1.90;;;;;;;;;;5094829;28;20442;-71
2022/09/19 08:01:46;;;;;;;5.90;2.00;;;;;;;;;;5094809;28;20449;-71
2022/09/19 08:04:14;;;;;;;2.07;1.50;;;;;;;;;;5094496;28;20478;-71
2022/09/19 08:06:41;;;;;;;6.03;2.00;;;;;;;;;;5094669;28;20580;-71
2022/09/19 08:09:08;;;;;;;2.37;1.73;;;;;;;;;;5094594;28;20453;-70
2022/09/19 08:11:35;;;;;;;6.10;1.90;;;;;;;;;;5094799;28;20473;-71
2022/09/19 08:14:04;;;;;;;5.57;2.50;;;;;;;;;;5094349;28;20475;-71
2022/09/19 08:16:31;;;;;;;5.47;2.20;;;;;;;;;;5094264;28;20940;-70
2022/09/19 08:18:59;;;;;;;5.60;1.70;;;;;;;;;;5094382;28;20545;-70
2022/09/19 08:21:26;;;;;;;2.20;1.80;;;;;;;;;;5094164;28;20450;-71
2022/09/19 08:23:53;;;;;;;5.03;1.90;;;;;;;;;;5093922;28;20536;-71
2022/09/19 08:26:21;;;;;;;5.57;2.20;;;;;;;;;;5094348;28;20443;-70
2022/09/19 08:28:50;;;;;;;4.43;3.00;;;;;;;;;;5094130;28;20469;-71
2022/09/19 08:31:19;;;;;;;6.27;2.00;;;;;;;;;;5094247;28;20468;-70
2022/09/19 08:33:49;;;;;;;5.33;1.70;;;;;;;;;;5093832;28;20458;-71
2022/09/19 08:36:16;;;;;;;12.70;2.10;;;;;;;;;;5094098;28;20458;-71
2022/09/19 08:38:43;;;;;;;7.90;1.73;;;;;;;;;;5094095;28;20493;-71
2022/09/19 08:41:29;;;;;;;4.53;2.00;;;;;;;;;;5093940;28;20467;-71
2022/09/19 08:43:58;;;;;;;3.10;2.10;;;;;;;;;;5093751;28;20467;-71
2022/09/19 08:46:30;;;;;;;8.73;1.70;;;;;;;;;;5093631;28;20450;-71
2022/09/19 08:49:00;;;;;;;5.00;1.70;;;;;;;;;;5093888;28;20450;-70
2022/09/19 08:51:29;;;;;;;7.20;2.27;;;;;;;;;;5093843;28;20458;-71
2022/09/19 08:53:59;;;;;;;4.77;2.47;;;;;;;;;;5093448;28;20470;-71
2022/09/19 08:56:26;;;;;;;4.10;2.33;;;;;;;;;;5093769;28;20455;-70
2022/09/19 08:58:56;;;;;;;5.77;2.30;;;;;;;;;;5093606;28;20967;-70
2022/09/19 09:01:24;;;;;;;8.90;2.07;;;;;;;;;;5093180;28;20964;-71
2022/09/19 09:03:59;;;;;;;5.37;1.83;;;;;;;;;;5093405;28;20454;-71
2022/09/19 09:06:29;;;;;;;3.53;1.83;;;;;;;;;;5093488;28;20454;-70
2022/09/19 09:09:03;;;;;;;6.90;2.03;;;;;;;;;;5093569;28;20442;-70
2022/09/19 09:11:35;;;;;;;6.40;1.90;;;;;;;;;;5093438;28;20935;-70
2022/09/19 09:14:07;;;;;;;5.83;2.60;;;;;;;;;;5093286;28;20963;-70
2022/09/19 09:16:44;;;;;;;3.33;1.67;;;;;;;;;;5093767;28;20453;-70
2022/09/19 09:19:25;;;;;;;3.80;1.67;;;;;;;;;;5093482;28;20450;-70
2022/09/19 09:21:59;;;;;;;7.70;1.97;;;;;;;;;;5093817;28;20939;-70
2022/09/19 09:24:29;;;;;;;5.63;1.73;;;;;;;;;;5092635;28;20813;-70
2022/09/19 09:26:59;;;;;;;2.57;2.13;;;;;;;;;;5093239;28;20474;-70
2022/09/19 09:29:28;;;;;;;7.83;1.83;;;;;;;;;;5093246;28;20537;-70
2022/09/19 09:31:58;;;;;;;4.87;2.33;;;;;;;;;;5093492;28;20443;-70
2022/09/19 09:34:29;;;;;;;6.17;1.93;;;;;;;;;;5092804;28;20462;-70
2022/09/19 09:36:59;;;;;;;4.13;1.70;;;;;;;;;;5093378;28;20504;-70
2022/09/19 09:39:28;;;;;;;5.30;2.00;;;;;;;;;;5093235;28;20446;-70
2022/09/19 09:41:57;;;;;;;5.50;1.90;;;;;;;;;;5093126;28;20468;-70
2022/09/19 09:44:30;;;;;;;5.60;2.27;;;;;;;;;;5092744;28;20836;-70
2022/09/19 09:47:02;;;;;;;3.20;1.70;;;;;;;;;;5092985;28;20446;-70
2022/09/19 09:49:31;;;;;;;3.93;2.03;;;;;;;;;;5093212;28;20790;-70
2022/09/19 09:52:06;;;;;;;3.70;1.93;;;;;;;;;;5093136;28;20457;-70
2022/09/19 09:57:32;;;;;;;5.00;3.53;;;;;;;;;;5092952;28;20935;-70
2022/09/19 10:05:50;;;;;;;5.63;2.40;;;;;;;;;;5030402;28;20461;-70
2022/09/19 10:08:19;;;;;;;4.03;2.70;;;;;;;;;;5079133;28;20868;-70
2022/09/19 10:10:51;;;;;;;7.27;2.77;;;;;;;;;;5092800;28;20455;-70
2022/09/19 10:13:25;;;;;;;2.30;1.83;;;;;;;;;;5094557;28;20495;-70
2022/09/19 10:15:54;;;;;;;5.40;2.10;;;;;;;;;;5096672;28;20467;-70
2022/09/19 10:18:23;;;;;;;5.90;1.67;;;;;;;;;;5096717;28;20940;-70
2022/09/19 10:20:52;;;;;;;4.10;2.30;;;;;;;;;;5096693;28;20450;-70
2022/09/19 10:23:23;;;;;;;2.60;1.70;;;;;;;;;;5096115;28;20822;-70
2022/09/19 10:25:51;;;;;;;4.33;2.73;;;;;;;;;;5096470;28;20476;-70
2022/09/19 10:28:24;;;;;;;5.93;2.90;;;;;;;;;;5096386;28;20483;-70
2022/09/19 10:30:55;;;;;;;2.80;2.17;;;;;;;;;;5096402;28;20493;-70
2022/09/19 10:33:28;;;;;;;3.23;1.67;;;;;;;;;;5096545;28;20944;-70
2022/09/19 10:35:58;;;;;;;2.50;1.90;;;;;;;;;;5096191;28;20470;-70
2022/09/19 10:38:26;;;;;;;3.07;1.70;;;;;;;;;;5096358;28;20511;-70
2022/09/19 10:40:56;;;;;;;6.93;2.40;;;;;;;;;;5096165;28;20455;-70
2022/09/19 10:43:26;;;;;;;5.53;2.03;;;;;;;;;;5096343;28;20992;-70
2022/09/19 10:45:53;;;;;;;5.63;2.93;;;;;;;;;;5096093;28;20561;-70
2022/09/19 10:48:23;;;;;;;3.10;2.00;;;;;;;;;;5096016;28;20494;-70
2022/09/19 10:50:50;;;;;;;12.30;2.50;;;;;;;;;;5096237;28;20792;-70
2022/09/19 10:53:22;;;;;;;3.60;2.23;;;;;;;;;;5095983;28;20465;-71
2022/09/19 10:55:49;;;;;;;3.60;1.97;;;;;;;;;;5095821;28;20569;-70
2022/09/19 10:58:18;;;;;;;3.70;2.43;;;;;;;;;;5096048;28;20443;-70
2022/09/19 11:00:51;;;;;;;4.97;2.03;;;;;;;;;;5096029;28;20931;-70
2022/09/19 11:03:23;;;;;;;4.23;2.30;;;;;;;;;;5096167;28;20541;-70
2022/09/19 11:06:03;;;;;;;2.70;1.93;;;;;;;;;;5095710;28;20565;-70
2022/09/19 11:08:31;;;;;;;3.10;2.00;;;;;;;;;;5095708;28;20508;-70
2022/09/19 11:11:02;;;;;;;2.77;1.47;;;;;;;;;;5095884;28;20977;-70
2022/09/19 11:13:29;;;;;;;5.00;1.57;;;;;;;;;;5095575;28;21088;-71
2022/09/19 11:16:05;;;;;;;2.60;1.80;;;;;;;;;;5095625;28;20463;-71
2022/09/19 11:18:39;;;;;;;4.20;1.97;;;;;;;;;;5095473;28;20500;-70
2022/09/19 11:21:12;;;;;;;4.60;3.03;;;;;;;;;;5095831;28;20451;-71
2022/09/19 11:23:56;;;;;;;2.90;1.73;;;;;;;;;;5094902;28;20457;-71
2022/09/19 11:26:28;;;;;;;2.20;1.80;;;;;;;;;;5095414;28;20450;-71
2022/09/19 11:29:02;;;;;;;4.50;2.27;;;;;;;;;;5095452;28;20980;-71
2022/09/19 11:31:35;;;;;;;2.40;1.90;;;;;;;;;;5095845;28;20460;-71
2022/09/19 11:34:09;;;;;;;4.53;2.10;;;;;;;;;;5095130;28;20816;-71
2022/09/19 11:36:40;;;;;;;4.73;2.73;;;;;;;;;;5095177;28;20454;-71
2022/09/19 11:39:12;;;;;;;2.90;1.87;;;;;;;;;;5095098;28;20455;-71
2022/09/19 11:41:45;;;;;;;3.13;1.33;;;;;;;;;;5094936;28;20848;-71
2022/09/19 11:44:21;;;;;;;3.00;1.70;;;;;;;;;;5094953;28;20474;-71
2022/09/19 11:46:54;;;;;;;3.90;2.40;;;;;;;;;;5095229;28;20458;-71
2022/09/19 11:49:32;;;;;;;3.97;2.00;;;;;;;;;;5094912;28;20486;-71
2022/09/19 11:52:02;;;;;;;1.90;1.53;;;;;;;;;;5095200;28;20937;-71
2022/09/19 11:54:57;;;;;;;6.10;1.80;;;;;;;;;;5094655;28;20470;-71
2022/09/19 11:57:39;;;;;;;6.80;2.30;;;;;;;;;;5094732;28;20455;-71
2022/09/19 12:00:17;;;;;;;3.40;1.60;;;;;;;;;;5094897;28;20895;-71
2022/09/19 12:02:53;;;;;;;5.30;1.97;;;;;;;;;;5094872;28;20450;-71
2022/09/19 12:05:24;;;;;;;3.90;1.90;;;;;;;;;;5094444;28;20552;-71
2022/09/19 12:08:00;;;;;;;4.80;2.53;;;;;;;;;;5094433;28;20493;-71
2022/09/19 12:10:32;;;;;;;3.23;2.33;;;;;;;;;;5094526;28;20515;-71
2022/09/19 12:13:02;;;;;;;4.27;2.27;;;;;;;;;;5094655;28;20454;-71
2022/09/19 12:15:30;;;;;;;5.50;2.40;;;;;;;;;;5093374;28;20508;-71
2022/09/19 12:18:00;;;;;;;5.67;3.40;;;;;;;;;;5094525;28;20474;-72
2022/09/19 12:20:30;;;;;;;4.70;2.50;;;;;;;;;;5094375;28;20451;-73
2022/09/19 12:24:51;;;;;;;6.63;2.37;;;;;;;;;;5093942;28;20457;-73
2022/09/19 12:25:46;;;;;;;8.87;2.13;;;;;;;;;;5093802;28;20471;-73
2022/09/19 12:28:16;;;;;;;5.23;2.87;;;;;;;;;;5094003;28;20478;-73
2022/09/19 12:30:46;;;;;;;5.47;2.43;;;;;;;;;;5094409;28;20508;-73
2022/09/19 12:33:17;;;;;;;5.33;2.00;;;;;;;;;;5094176;28;20453;-72
2022/09/19 12:35:46;;;;;;;3.77;2.43;;;;;;;;;;5093156;28;20471;-73
2022/09/19 12:38:18;;;;;;;4.83;1.90;;;;;;;;;;5094167;28;20942;-73
2022/09/19 12:40:52;;;;;;;2.50;1.87;;;;;;;;;;5093875;28;20447;-72
2022/09/19 12:43:33;;;;;;;3.70;1.93;;;;;;;;;;5093893;28;20458;-71
2022/09/19 12:46:08;;;;;;;2.93;1.43;;;;;;;;;;5093896;28;20509;-71
2022/09/19 12:48:40;;;;;;;3.43;2.00;;;;;;;;;;5093822;28;20485;-71
2022/09/19 12:51:08;;;;;;;3.10;2.00;;;;;;;;;;5093984;28;20939;-71
2022/09/19 12:53:37;;;;;;;4.40;1.90;;;;;;;;;;5093550;28;20459;-73
2022/09/19 12:56:13;;;;;;;3.10;1.67;;;;;;;;;;5093928;28;20831;-73
2022/09/19 12:58:44;;;;;;;4.60;1.80;;;;;;;;;;5093642;28;20458;-71
2022/09/19 13:01:18;;;;;;;3.10;1.87;;;;;;;;;;5093804;28;20451;-71
2022/09/19 13:03:50;;;;;;;2.63;1.40;;;;;;;;;;5093501;28;20932;-70
2022/09/19 13:06:20;;;;;;;8.90;1.73;;;;;;;;;;5076142;28;20956;-70
2022/09/19 13:08:48;;;;;;;4.40;1.93;;;;;;;;;;5073232;28;20541;-70
2022/09/19 13:11:21;;;;;;;4.17;1.90;;;;;;;;;;5072509;28;20459;-71
2022/09/19 13:13:52;;;;;;;3.23;1.27;;;;;;;;;;5072968;28;20826;-71
2022/09/19 13:16:23;;;;;;;3.30;1.70;;;;;;;;;;5073084;28;20501;-71
2022/09/19 13:24:23;;;;;;;1.80;1.30;;;;;;;;;;5072688;28;20443;-71
2022/09/19 13:26:55;;;;;;;3.20;1.33;;;;;;;;;;5072985;28;20459;-71
2022/09/19 13:29:45;;;;;;;3.37;1.80;;;;;;;;;;5072895;28;20483;-71
2022/09/19 13:32:28;;;;;;;1.70;1.20;;;;;;;;;;5072934;28;20451;-71
2022/09/19 13:35:03;;;;;;;2.87;1.70;;;;;;;;;;5072813;28;20475;-71
2022/09/19 13:37:51;;;;;;;2.30;1.40;;;;;;;;;;5072918;28;20447;-70
2022/09/19 13:40:23;;;;;;;2.40;1.70;;;;;;;;;;5069578;28;20459;-71
2022/09/19 13:42:53;;;;;;;2.70;1.77;;;;;;;;;;5072884;28;21028;-70
2022/09/19 13:45:24;;;;;;;7.80;1.40;;;;;;;;;;5073086;28;20472;-70
2022/09/19 13:47:54;;;;;;;3.60;2.30;;;;;;;;;;5075636;28;21038;-70
2022/09/19 13:50:25;;;;;;;2.43;1.80;;;;;;;;;;5076935;28;20444;-71
2022/09/19 13:53:00;;;;;;;2.43;1.60;;;;;;;;;;5077021;28;20864;-71
2022/09/19 13:55:32;;;;;;;1.80;1.50;;;;;;;;;;5076624;28;20524;-71
2022/09/19 13:58:14;;;;;;;5.37;1.70;;;;;;;;;;5076780;28;20487;-71
2022/09/19 14:00:46;;;;;;;2.37;1.60;;;;;;;;;;5075155;28;20462;-71
2022/09/19 14:03:22;;;;;;;4.10;1.67;;;;;;;;;;5076787;28;20554;-71
2022/09/19 14:05:49;;;;;;;3.70;1.80;;;;;;;;;;5076411;28;20478;-71
2022/09/19 14:08:30;;;;;;;6.20;1.70;;;;;;;;;;5076663;28;20487;-71
2022/09/19 14:10:58;;;;;;;4.40;2.20;;;;;;;;;;5076807;28;20512;-71
2022/09/19 14:13:40;;;;;;;3.70;1.70;;;;;;;;;;5076319;28;20462;-71
2022/09/19 14:16:30;;;;;;;3.20;2.40;;;;;;;;;;5076558;28;20451;-72
2022/09/19 14:18:59;;;;;;;9.37;1.80;;;;;;;;;;5076416;28;20459;-72
2022/09/19 14:21:59;;;;;;;6.30;1.73;;;;;;;;;;5076355;28;20455;-71
2022/09/19 14:24:38;;;;;;;3.33;1.30;;;;;;;;;;5075200;28;21063;-70
2022/09/19 14:27:11;;;;;;;2.67;1.60;;;;;;;;;;5076198;28;20500;-71
2022/09/19 14:29:43;;;;;;;4.33;1.80;;;;;;;;;;5076069;28;20875;-71
2022/09/19 14:32:20;;;;;;;2.00;1.40;;;;;;;;;;5076032;28;20451;-71
2022/09/19 14:35:02;;;;;;;2.23;1.63;;;;;;;;;;5075940;28;20894;-71
2022/09/19 14:37:40;;;;;;;4.60;1.30;;;;;;;;;;5076075;28;20470;-70
2022/09/19 14:40:15;;;;;;;4.10;1.80;;;;;;;;;;5076017;28;20451;-70
2022/09/19 14:42:56;;;;;;;3.10;1.57;;;;;;;;;;5075818;28;20466;-71
2022/09/19 14:45:28;;;;;;;2.63;1.90;;;;;;;;;;5075771;28;20467;-71
2022/09/19 14:47:59;;;;;;;4.30;2.33;;;;;;;;;;5076179;28;20455;-71
2022/09/19 14:50:29;;;;;;;6.50;2.10;;;;;;;;;;5075946;28;20489;-71
2022/09/19 14:52:59;;;;;;;3.27;1.97;;;;;;;;;;5075889;28;20463;-71
2022/09/19 14:55:28;;;;;;;2.40;1.37;;;;;;;;;;5075873;28;20503;-71
2022/09/19 14:57:55;;;;;;;1.70;1.10;;;;;;;;;;5075671;28;20955;-71
2022/09/19 15:00:23;;;;;;;2.37;1.20;;;;;;;;;;5075136;28;20491;-71
2022/09/19 15:02:51;;;;;;;5.60;1.73;;;;;;;;;;5075566;28;20458;-71
2022/09/19 15:05:22;;;;;;;8.40;2.23;;;;;;;;;;5075382;28;20463;-71
2022/09/19 15:07:49;;;;;;;3.40;1.60;;;;;;;;;;5075532;28;20513;-71
2022/09/19 15:10:30;;;;;;;4.17;1.50;;;;;;;;;;5075511;28;21024;-71
2022/09/19 15:12:57;;;;;;;7.10;1.70;;;;;;;;;;5075542;28;20538;-71
2022/09/19 15:15:27;;;;;;;2.30;1.50;;;;;;;;;;5075418;28;20574;-71
2022/09/19 15:17:54;;;;;;;2.00;1.40;;;;;;;;;;5075536;28;20933;-70
2022/09/19 15:20:23;;;;;;;3.77;2.43;;;;;;;;;;5075246;28;20451;-70
2022/09/19 15:22:52;;;;;;;3.80;2.00;;;;;;;;;;5075091;28;20456;-71
2022/09/19 15:25:22;;;;;;;2.83;1.83;;;;;;;;;;5075007;28;20468;-71